Time;durP1;ratioP1;P1;durP2;ratioP2;P2;SDS_P1;SDS_P2;PMS_P1;PMS_P2;Temp;Humidity;BMP_temperature;BMP_pressure;BME280_temperature;BME280_humidity;BME280_pressure;Samples;Min_cycle;Max_cycle;Signal;HPM_P1;HPM_P2
2021/01/04 00:01:46;;;;;;;25.83;14.63;;;6.70;53.40;;;;;;5065467;28;20091;-74
2021/01/04 00:04:22;;;;;;;24.15;14.35;;;6.70;53.50;;;;;;5035968;28;20044;-74
2021/01/04 00:06:57;;;;;;;28.05;15.32;;;6.70;53.60;;;;;;5052820;28;20071;-74
2021/01/04 00:09:34;;;;;;;29.70;14.65;;;6.70;53.50;;;;;;5052497;28;20044;-74
2021/01/04 00:12:08;;;;;;;26.27;15.35;;;6.70;53.50;;;;;;5052738;28;20427;-74
2021/01/04 00:14:53;;;;;;;23.02;13.20;;;6.70;53.50;;;;;;5052576;28;20433;-74
2021/01/04 00:17:22;;;;;;;26.20;15.20;;;6.70;53.50;;;;;;5052483;28;20031;-75
2021/01/04 00:19:59;;;;;;;28.45;14.73;;;6.70;53.60;;;;;;5052487;28;20116;-74
2021/01/04 00:22:46;;;;;;;24.30;13.63;;;6.60;53.60;;;;;;5050494;28;20033;-74
2021/01/04 00:25:35;;;;;;;23.83;12.85;;;6.60;53.60;;;;;;5049757;28;20037;-75
2021/01/04 00:28:07;;;;;;;28.13;13.73;;;6.60;53.60;;;;;;5037934;28;20108;-75
2021/01/04 00:30:52;;;;;;;24.80;14.15;;;6.60;53.60;;;;;;5024655;28;20425;-74
2021/01/04 00:33:26;;;;;;;29.63;16.50;;;6.60;53.60;;;;;;5034219;28;20021;-75
2021/01/04 00:36:01;;;;;;;30.07;16.23;;;6.60;53.50;;;;;;5014730;28;20045;-75
2021/01/04 00:38:54;;;;;;;25.50;14.93;;;6.60;53.50;;;;;;5024022;28;20108;-75
2021/01/04 00:41:23;;;;;;;29.67;15.48;;;6.60;53.50;;;;;;5034390;28;20037;-75
2021/01/04 00:44:01;;;;;;;28.33;15.98;;;6.60;53.40;;;;;;5034199;28;20021;-75
2021/01/04 00:46:46;;;;;;;31.45;16.27;;;6.50;53.30;;;;;;5014507;28;20034;-74
2021/01/04 00:49:19;;;;;;;29.33;15.30;;;6.50;53.30;;;;;;5014299;28;20034;-74
2021/01/04 00:52:08;;;;;;;34.42;17.73;;;6.40;53.30;;;;;;5014376;28;20522;-74
2021/01/04 00:55:09;;;;;;;29.77;15.60;;;6.40;53.20;;;;;;5013008;28;20026;-74
2021/01/04 00:57:50;;;;;;;31.25;15.90;;;6.30;53.20;;;;;;5021602;28;20128;-74
2021/01/04 01:00:26;;;;;;;29.02;15.55;;;6.30;53.40;;;;;;5017325;28;20026;-75
2021/01/04 01:02:55;;;;;;;27.92;15.43;;;6.30;53.60;;;;;;5028595;28;20040;-76
2021/01/04 01:05:48;;;;;;;30.30;16.38;;;6.30;53.70;;;;;;5026716;28;20033;-75
2021/01/04 01:08:23;;;;;;;32.78;17.48;;;6.30;53.80;;;;;;5013227;28;20049;-75
2021/01/04 01:10:54;;;;;;;30.90;15.73;;;6.30;53.70;;;;;;5013944;28;20014;-75
2021/01/04 01:13:33;;;;;;;24.23;14.63;;;6.30;53.80;;;;;;5013965;28;20030;-75
2021/01/04 01:16:33;;;;;;;30.20;17.00;;;6.40;53.90;;;;;;5014509;28;20026;-75
2021/01/04 01:19:15;;;;;;;28.50;15.73;;;6.40;53.90;;;;;;5014609;28;20026;-75
2021/01/04 01:21:45;;;;;;;31.38;17.55;;;6.40;53.90;;;;;;5018932;28;20398;-76
2021/01/04 01:24:12;;;;;;;34.80;18.45;;;6.40;54.00;;;;;;5055136;28;20041;-75
2021/01/04 01:27:13;;;;;;;34.78;18.98;;;6.40;54.00;;;;;;5053953;28;20028;-75
2021/01/04 01:29:44;;;;;;;33.97;17.73;;;6.30;54.00;;;;;;5054878;28;20028;-75
2021/01/04 01:32:35;;;;;;;35.55;18.20;;;6.40;54.10;;;;;;5060594;28;20497;-75
2021/01/04 01:35:45;;;;;;;33.03;16.95;;;6.30;54.10;;;;;;5054369;28;20108;-75
2021/01/04 01:38:34;;;;;;;31.80;17.75;;;6.30;54.10;;;;;;5067637;28;20049;-75
2021/01/04 01:41:00;;;;;;;34.10;17.92;;;6.30;54.10;;;;;;5070074;28;20025;-75
2021/01/04 01:43:28;;;;;;;31.70;17.52;;;6.30;54.10;;;;;;5072180;28;20040;-75
2021/01/04 01:45:57;;;;;;;34.60;16.88;;;6.30;54.10;;;;;;5068789;28;20050;-75
2021/01/04 01:48:25;;;;;;;37.92;19.05;;;6.30;54.10;;;;;;5053738;28;20029;-75
2021/01/04 01:51:00;;;;;;;34.90;18.20;;;6.20;54.20;;;;;;5068926;28;20144;-75
2021/01/04 01:53:47;;;;;;;35.17;19.00;;;6.20;54.30;;;;;;5053789;28;20477;-75
2021/01/04 01:56:22;;;;;;;39.03;19.35;;;6.20;54.40;;;;;;5053676;28;20031;-75
2021/01/04 01:59:35;;;;;;;44.38;21.33;;;6.10;54.40;;;;;;5053758;28;20034;-75
2021/01/04 02:02:06;;;;;;;38.95;19.55;;;6.10;54.50;;;;;;5051507;28;20406;-75
2021/01/04 02:05:28;;;;;;;31.52;17.95;;;6.10;54.50;;;;;;5053705;28;20386;-75
2021/01/04 02:08:09;;;;;;;35.03;17.45;;;6.10;54.60;;;;;;5038625;28;20033;-75
2021/01/04 02:10:41;;;;;;;32.92;17.90;;;6.10;54.70;;;;;;5051323;28;20021;-75
2021/01/04 02:13:28;;;;;;;33.05;17.88;;;6.10;54.70;;;;;;5070245;28;20396;-75
2021/01/04 02:15:58;;;;;;;34.78;19.15;;;6.00;54.70;;;;;;5071272;28;20036;-75
2021/01/04 02:18:44;;;;;;;30.38;15.98;;;6.00;54.70;;;;;;5071096;28;20056;-76
2021/01/04 02:21:47;;;;;;;29.27;15.57;;;6.00;54.80;;;;;;5066141;28;20428;-75
2021/01/04 02:24:19;;;;;;;30.13;15.07;;;6.10;54.70;;;;;;5051114;28;20049;-75
2021/01/04 02:27:01;;;;;;;40.25;19.15;;;6.10;54.80;;;;;;5039023;28;20525;-75
2021/01/04 02:29:28;;;;;;;35.63;19.15;;;6.10;54.80;;;;;;5067940;28;20052;-75
2021/01/04 02:32:01;;;;;;;33.80;18.48;;;6.10;54.80;;;;;;5061206;28;20055;-75
2021/01/04 02:34:34;;;;;;;38.85;19.25;;;6.10;54.70;;;;;;5071305;28;20379;-75
2021/01/04 02:37:01;;;;;;;43.00;20.67;;;6.10;54.70;;;;;;5071227;28;20055;-75
2021/01/04 02:39:49;;;;;;;36.25;18.85;;;6.10;54.70;;;;;;5037791;28;20036;-75
2021/01/04 02:42:35;;;;;;;35.10;18.63;;;6.10;54.70;;;;;;5052875;28;20041;-75
2021/01/04 02:45:08;;;;;;;39.20;19.95;;;6.10;54.70;;;;;;5052203;28;20497;-75
2021/01/04 02:47:37;;;;;;;39.83;21.38;;;6.10;54.90;;;;;;5052941;28;20064;-75
2021/01/04 02:50:21;;;;;;;37.78;19.25;;;6.10;54.80;;;;;;5062881;28;20023;-75
2021/01/04 02:53:10;;;;;;;40.65;20.85;;;6.10;54.80;;;;;;5073094;28;20032;-75
2021/01/04 02:56:03;;;;;;;41.67;20.63;;;6.10;54.90;;;;;;5072679;28;20518;-75
2021/01/04 02:58:38;;;;;;;35.38;19.27;;;6.00;54.90;;;;;;5052946;28;20060;-75
2021/01/04 03:01:10;;;;;;;39.40;18.85;;;6.10;55.00;;;;;;5072416;28;20036;-75
2021/01/04 03:03:38;;;;;;;36.40;19.20;;;6.10;55.00;;;;;;5073037;28;20026;-75
2021/01/04 03:06:09;;;;;;;39.80;20.70;;;6.10;55.10;;;;;;5072895;28;20031;-75
2021/01/04 03:08:35;;;;;;;33.70;17.35;;;6.10;55.00;;;;;;5072918;28;20025;-75
2021/01/04 03:11:01;;;;;;;40.28;20.55;;;6.10;55.00;;;;;;5072644;28;20035;-75
2021/01/04 03:13:53;;;;;;;33.83;18.30;;;6.10;54.90;;;;;;5072535;28;20100;-75
2021/01/04 03:16:32;;;;;;;36.78;18.88;;;6.10;55.00;;;;;;5073269;28;20355;-75
2021/01/04 03:19:02;;;;;;;35.90;20.58;;;6.10;54.90;;;;;;5071410;28;20039;-75
2021/01/04 03:21:29;;;;;;;31.27;17.33;;;6.10;54.90;;;;;;5062123;28;20036;-75
2021/01/04 03:23:57;;;;;;;36.25;17.55;;;6.10;54.90;;;;;;5052551;28;20556;-75
2021/01/04 03:26:27;;;;;;;41.28;20.45;;;6.10;54.90;;;;;;5053052;28;20449;-75
2021/01/04 03:28:53;;;;;;;37.92;19.15;;;6.00;55.00;;;;;;5052678;28;20057;-75
2021/01/04 03:31:18;;;;;;;36.45;19.00;;;6.00;55.10;;;;;;5052578;28;20029;-75
2021/01/04 03:33:44;;;;;;;37.90;18.70;;;6.00;55.10;;;;;;5052702;28;20021;-75
2021/01/04 03:36:10;;;;;;;35.63;17.33;;;6.00;55.40;;;;;;5052665;28;20017;-75
2021/01/04 03:38:36;;;;;;;30.23;16.08;;;6.00;55.50;;;;;;5055435;28;20033;-75
2021/01/04 03:41:04;;;;;;;32.00;16.52;;;6.00;55.60;;;;;;5056223;28;20031;-75
2021/01/04 03:43:30;;;;;;;32.75;17.27;;;6.00;55.70;;;;;;5056200;28;20083;-75
2021/01/04 03:45:57;;;;;;;32.08;15.93;;;6.00;55.80;;;;;;5054849;28;20049;-75
2021/01/04 03:48:23;;;;;;;30.13;15.85;;;5.90;55.80;;;;;;5056061;28;20386;-75
2021/01/04 03:50:52;;;;;;;29.15;15.43;;;5.90;55.90;;;;;;5059628;28;20066;-75
2021/01/04 03:53:19;;;;;;;31.63;15.80;;;5.90;56.00;;;;;;5055996;28;20431;-75
2021/01/04 03:55:45;;;;;;;35.50;15.52;;;6.00;56.00;;;;;;5069855;28;20024;-75
2021/01/04 03:58:12;;;;;;;32.72;17.00;;;6.00;56.00;;;;;;5055984;28;20025;-75
2021/01/04 04:00:37;;;;;;;38.72;18.73;;;6.00;56.10;;;;;;5057650;28;20074;-75
2021/01/04 04:03:04;;;;;;;37.10;18.33;;;6.00;56.10;;;;;;5075872;28;20486;-75
2021/01/04 04:05:31;;;;;;;36.42;17.30;;;6.00;56.10;;;;;;5060200;28;20104;-74
2021/01/04 04:07:58;;;;;;;37.25;16.55;;;6.00;56.10;;;;;;5055932;28;20025;-74
2021/01/04 04:10:24;;;;;;;36.92;17.40;;;6.00;56.20;;;;;;5055586;28;20045;-75
2021/01/04 04:12:50;;;;;;;38.45;17.75;;;5.90;56.30;;;;;;5055677;28;20083;-75
2021/01/04 04:15:18;;;;;;;34.65;17.77;;;5.90;56.40;;;;;;5055403;28;20021;-74
2021/01/04 04:17:44;;;;;;;37.00;17.95;;;5.90;56.40;;;;;;5055539;28;20457;-74
2021/01/04 04:20:13;;;;;;;38.45;17.40;;;5.90;56.50;;;;;;5055411;28;20052;-75
2021/01/04 04:22:39;;;;;;;35.53;18.20;;;5.90;56.60;;;;;;5060551;28;20521;-75
2021/01/04 04:25:07;;;;;;;37.38;18.38;;;5.80;56.50;;;;;;5055462;28;20029;-75
2021/01/04 04:27:33;;;;;;;34.67;18.77;;;5.80;56.70;;;;;;5055284;28;20398;-75
2021/01/04 04:29:59;;;;;;;38.33;18.25;;;5.70;56.70;;;;;;5056450;28;20029;-75
2021/01/04 04:32:25;;;;;;;34.63;16.88;;;5.70;56.90;;;;;;5064878;28;20017;-75
2021/01/04 04:34:51;;;;;;;37.25;18.33;;;5.70;57.00;;;;;;5074810;28;20107;-75
2021/01/04 04:37:16;;;;;;;38.47;18.95;;;5.70;57.10;;;;;;5074248;28;20025;-75
2021/01/04 04:39:42;;;;;;;39.65;18.92;;;5.60;57.10;;;;;;5066432;28;20020;-75
2021/01/04 04:42:11;;;;;;;36.97;18.33;;;5.60;57.80;;;;;;5054999;28;20036;-75
2021/01/04 04:44:56;;;;;;;37.58;18.52;;;5.60;57.30;;;;;;5055025;28;20028;-74
2021/01/04 04:47:50;;;;;;;35.50;18.15;;;5.60;57.40;;;;;;5054864;28;20466;-75
2021/01/04 04:50:53;;;;;;;36.63;17.67;;;5.60;57.50;;;;;;5054821;28;20086;-74
2021/01/04 04:54:11;;;;;;;31.88;17.00;;;5.50;57.50;;;;;;5069471;28;20025;-75
2021/01/04 04:56:59;;;;;;;36.92;18.48;;;5.60;57.70;;;;;;5092898;28;20032;-75
2021/01/04 04:59:45;;;;;;;39.67;18.85;;;5.50;57.70;;;;;;5057035;28;20367;-75
2021/01/04 05:02:48;;;;;;;34.88;16.75;;;5.60;57.80;;;;;;5063588;28;20132;-74
2021/01/04 05:05:31;;;;;;;33.95;17.38;;;5.50;58.00;;;;;;5054553;28;20032;-75
2021/01/04 05:08:20;;;;;;;38.28;18.15;;;5.50;58.10;;;;;;5063685;28;20036;-75
2021/01/04 05:10:50;;;;;;;30.58;14.30;;;5.50;58.10;;;;;;5064781;28;20428;-75
2021/01/04 05:13:23;;;;;;;30.02;14.25;;;5.50;58.00;;;;;;5053686;28;20017;-75
2021/01/04 05:15:59;;;;;;;28.40;13.73;;;5.50;58.10;;;;;;5053233;28;20021;-75
2021/01/04 05:19:22;;;;;;;26.38;12.95;;;5.60;58.10;;;;;;5054425;28;20032;-75
2021/01/04 05:22:01;;;;;;;30.27;13.95;;;5.60;58.10;;;;;;5065439;28;20072;-75
2021/01/04 05:24:45;;;;;;;28.65;13.38;;;5.60;57.90;;;;;;5071849;28;20052;-74
2021/01/04 05:27:32;;;;;;;28.45;13.85;;;5.70;57.80;;;;;;5059917;28;20068;-75
2021/01/04 05:30:20;;;;;;;24.10;12.05;;;5.70;57.80;;;;;;5054304;28;20033;-75
2021/01/04 05:33:22;;;;;;;29.23;14.00;;;5.80;57.80;;;;;;5054084;28;20021;-75
2021/01/04 05:35:51;;;;;;;26.60;14.70;;;5.80;57.70;;;;;;5054027;28;20048;-75
2021/01/04 05:38:40;;;;;;;26.45;13.63;;;5.80;57.60;;;;;;5053989;28;20028;-75
2021/01/04 05:41:25;;;;;;;22.95;12.18;;;5.80;57.50;;;;;;5053871;28;20079;-75
2021/01/04 05:44:00;;;;;;;23.17;12.02;;;5.90;57.50;;;;;;5053817;28;20508;-75
2021/01/04 05:46:42;;;;;;;23.08;12.07;;;5.90;57.40;;;;;;5053728;28;20037;-75
2021/01/04 05:49:31;;;;;;;22.38;11.68;;;6.00;57.40;;;;;;5053849;28;20367;-75
2021/01/04 05:51:57;;;;;;;22.33;11.48;;;6.00;57.30;;;;;;5057840;28;20031;-75
2021/01/04 05:54:28;;;;;;;22.13;11.55;;;6.00;57.30;;;;;;5057536;28;20103;-75
2021/01/04 05:57:15;;;;;;;35.42;18.48;;;6.10;57.30;;;;;;5054066;28;20057;-75
2021/01/04 05:59:53;;;;;;;31.02;16.50;;;6.10;57.20;;;;;;5051923;28;20029;-75
2021/01/04 06:02:28;;;;;;;29.55;14.82;;;6.10;57.20;;;;;;5053901;28;20064;-75
2021/01/04 06:05:15;;;;;;;28.38;13.55;;;6.10;57.10;;;;;;5053621;28;20020;-75
2021/01/04 06:07:45;;;;;;;33.10;15.02;;;6.10;57.10;;;;;;5053505;28;20040;-75
2021/01/04 06:10:29;;;;;;;29.52;15.48;;;6.20;57.10;;;;;;5053346;28;20029;-75
2021/01/04 06:12:56;;;;;;;32.63;15.40;;;6.20;57.10;;;;;;5053573;28;20032;-75
2021/01/04 06:15:35;;;;;;;29.95;14.73;;;6.20;57.00;;;;;;5053418;28;20516;-74
2021/01/04 06:18:05;;;;;;;33.83;15.40;;;6.20;57.00;;;;;;5053425;28;20079;-74
2021/01/04 06:20:43;;;;;;;32.47;15.32;;;6.20;57.10;;;;;;5053273;28;20036;-74
2021/01/04 06:23:10;;;;;;;29.88;15.93;;;6.20;57.20;;;;;;5053115;28;20095;-74
2021/01/04 06:25:36;;;;;;;28.25;15.02;;;6.20;57.20;;;;;;5052001;28;20029;-75
2021/01/04 06:28:03;;;;;;;34.15;16.10;;;6.20;57.20;;;;;;5052976;28;20105;-75
2021/01/04 06:30:38;;;;;;;32.90;16.65;;;6.10;57.30;;;;;;5051925;28;20029;-75
2021/01/04 06:33:24;;;;;;;30.52;14.82;;;6.10;57.30;;;;;;5068274;28;20020;-75
2021/01/04 06:36:07;;;;;;;27.52;14.65;;;6.10;57.30;;;;;;5053297;28;20032;-75
2021/01/04 06:38:39;;;;;;;29.30;14.82;;;6.10;57.30;;;;;;5052363;28;20025;-75
2021/01/04 06:41:30;;;;;;;31.27;14.68;;;6.10;57.90;;;;;;5061907;28;20087;-75
2021/01/04 06:44:07;;;;;;;30.63;15.55;;;6.10;57.30;;;;;;5053031;28;20025;-75
2021/01/04 06:46:44;;;;;;;40.38;17.30;;;6.10;57.30;;;;;;5053110;28;20082;-75
2021/01/04 06:49:15;;;;;;;33.83;17.73;;;6.00;57.20;;;;;;5052986;28;20107;-75
2021/01/04 06:52:12;;;;;;;36.28;17.92;;;6.00;57.20;;;;;;5052964;28;20017;-75
2021/01/04 06:55:02;;;;;;;29.33;16.23;;;6.00;57.10;;;;;;5060677;28;20033;-75
2021/01/04 06:57:53;;;;;;;29.73;15.85;;;6.00;57.10;;;;;;5068966;28;20545;-75
2021/01/04 07:00:37;;;;;;;35.35;17.85;;;6.00;57.20;;;;;;5053063;28;20028;-75
2021/01/04 07:03:03;;;;;;;37.42;18.30;;;5.90;57.10;;;;;;5053220;28;20029;-75
2021/01/04 07:05:54;;;;;;;39.70;17.38;;;5.90;57.20;;;;;;5052783;28;20482;-75
2021/01/04 07:08:54;;;;;;;34.47;17.45;;;5.90;57.30;;;;;;5052764;28;20036;-75
2021/01/04 07:11:40;;;;;;;32.35;16.20;;;5.90;57.30;;;;;;5052795;28;20021;-75
2021/01/04 07:14:43;;;;;;;33.75;17.35;;;5.90;57.30;;;;;;5056535;28;20071;-75
2021/01/04 07:17:29;;;;;;;30.38;15.73;;;5.90;57.40;;;;;;5057015;28;20377;-75
2021/01/04 07:20:14;;;;;;;34.60;17.55;;;5.90;57.40;;;;;;5056713;28;20039;-75
2021/01/04 07:23:18;;;;;;;33.92;18.02;;;5.90;57.50;;;;;;5056773;28;20498;-75
2021/01/04 07:26:08;;;;;;;33.97;17.83;;;6.00;57.50;;;;;;5057147;28;20049;-75
2021/01/04 07:29:09;;;;;;;32.35;17.10;;;6.00;57.50;;;;;;5056556;28;20063;-74
2021/01/04 07:31:56;;;;;;;34.25;16.98;;;6.00;57.60;;;;;;5056650;28;20032;-74
2021/01/04 07:34:46;;;;;;;30.42;15.50;;;6.00;57.70;;;;;;5059198;28;20082;-74
2021/01/04 07:37:27;;;;;;;28.90;15.10;;;6.00;57.70;;;;;;5065416;28;20025;-74
2021/01/04 07:40:20;;;;;;;36.17;14.90;;;6.00;57.70;;;;;;5075973;28;20020;-74
2021/01/04 07:42:58;;;;;;;37.05;17.88;;;6.00;57.80;;;;;;5056255;28;20374;-74
2021/01/04 07:45:29;;;;;;;33.50;18.40;;;6.10;57.90;;;;;;5068286;28;20381;-75
2021/01/04 07:48:17;;;;;;;36.38;19.10;;;6.10;58.00;;;;;;5074687;28;20032;-74
2021/01/04 07:51:21;;;;;;;32.20;15.50;;;6.10;58.00;;;;;;5058666;28;20029;-75
2021/01/04 07:54:27;;;;;;;31.43;16.67;;;6.10;58.10;;;;;;5053688;28;20086;-75
2021/01/04 07:57:23;;;;;;;33.75;17.23;;;6.10;58.10;;;;;;5056441;28;20076;-74
2021/01/04 08:00:25;;;;;;;36.55;18.25;;;6.10;58.20;;;;;;5055978;28;20029;-74
2021/01/04 08:03:09;;;;;;;30.88;17.15;;;6.10;58.30;;;;;;5056009;28;20021;-74
2021/01/04 08:05:49;;;;;;;35.33;19.65;;;6.20;58.30;;;;;;5071698;28;20038;-74
2021/01/04 08:08:33;;;;;;;39.58;19.77;;;6.10;58.30;;;;;;5075641;28;20021;-75
2021/01/04 08:11:24;;;;;;;;;;;6.10;58.50;;;;;;5062159;28;20021;-74
2021/01/04 08:14:04;;;;;;;37.70;19.20;;;6.20;58.30;;;;;;5074255;28;19904;-75
2021/01/04 08:16:36;;;;;;;40.88;20.35;;;6.10;58.50;;;;;;5055510;28;20028;-75
2021/01/04 08:19:05;;;;;;;41.65;20.58;;;6.10;58.60;;;;;;5055293;28;20060;-74
2021/01/04 08:21:47;;;;;;;33.92;18.23;;;6.10;58.80;;;;;;5055476;28;20112;-74
2021/01/04 08:24:23;;;;;;;38.13;19.85;;;6.10;58.80;;;;;;5054745;28;20468;-74
2021/01/04 08:27:04;;;;;;;42.67;21.20;;;6.20;59.00;;;;;;5055646;28;20090;-75
2021/01/04 08:29:47;;;;;;;52.83;23.98;;;6.20;59.10;;;;;;5060370;28;20557;-75
2021/01/04 08:32:28;;;;;;;38.92;20.42;;;6.10;59.20;;;;;;5075041;28;20067;-75
2021/01/04 08:34:53;;;;;;;38.58;19.55;;;6.20;59.10;;;;;;5055616;28;20055;-75
2021/01/04 08:37:35;;;;;;;41.90;21.13;;;6.20;59.10;;;;;;5052546;28;20024;-75
2021/01/04 08:40:12;;;;;;;39.92;20.55;;;6.20;59.30;;;;;;5063938;28;20052;-75
2021/01/04 08:42:39;;;;;;;43.72;22.30;;;6.20;59.20;;;;;;5054654;28;20389;-75
2021/01/04 08:45:11;;;;;;;41.45;20.38;;;6.20;59.20;;;;;;5055466;28;20052;-74
2021/01/04 08:47:52;;;;;;;43.30;21.73;;;6.20;59.20;;;;;;5054920;28;20029;-74
2021/01/04 08:50:36;;;;;;;41.92;21.90;;;6.20;59.20;;;;;;5054816;28;20099;-75
2021/01/04 08:53:22;;;;;;;36.63;21.47;;;6.20;59.20;;;;;;5053474;28;20025;-75
2021/01/04 08:55:49;;;;;;;42.58;21.05;;;6.20;59.10;;;;;;5072444;28;20568;-74
2021/01/04 08:58:21;;;;;;;35.22;19.42;;;6.30;59.10;;;;;;5074754;28;20025;-75
2021/01/04 09:01:07;;;;;;;35.90;19.95;;;6.30;59.10;;;;;;5060785;28;20032;-75
2021/01/04 09:03:34;;;;;;;38.53;20.60;;;6.30;59.10;;;;;;5068416;28;20059;-75
2021/01/04 09:06:13;;;;;;;39.42;20.05;;;6.30;59.00;;;;;;5073804;28;20025;-75
2021/01/04 09:08:47;;;;;;;38.90;19.08;;;6.40;59.00;;;;;;5054534;28;20055;-75
2021/01/04 09:11:15;;;;;;;36.00;18.50;;;6.40;58.90;;;;;;5066324;28;20024;-75
2021/01/04 09:13:42;;;;;;;33.00;18.35;;;6.40;58.90;;;;;;5055017;28;20075;-75
2021/01/04 09:16:23;;;;;;;41.47;20.33;;;6.50;59.00;;;;;;5054496;28;20025;-75
2021/01/04 09:18:52;;;;;;;35.20;18.95;;;6.50;58.90;;;;;;5057782;28;20489;-75
2021/01/04 09:21:34;;;;;;;34.33;18.80;;;6.60;58.80;;;;;;5071134;28;20032;-75
2021/01/04 09:24:15;;;;;;;36.00;19.05;;;6.60;58.60;;;;;;5062454;28;20502;-75
2021/01/04 09:26:42;;;;;;;38.55;20.17;;;6.70;58.60;;;;;;5061651;28;20399;-75
2021/01/04 09:29:11;;;;;;;38.58;20.33;;;6.70;58.30;;;;;;5068394;28;20032;-75
2021/01/04 09:31:51;;;;;;;34.53;19.20;;;6.70;58.10;;;;;;5071439;28;20075;-75
2021/01/04 09:34:19;;;;;;;35.65;17.80;;;6.80;58.10;;;;;;5052512;28;20474;-75
2021/01/04 09:36:45;;;;;;;32.38;18.42;;;6.80;58.00;;;;;;5052240;28;20025;-75
2021/01/04 09:39:15;;;;;;;35.70;20.10;;;6.80;57.90;;;;;;5054796;28;20344;-75
2021/01/04 09:41:42;;;;;;;33.05;18.05;;;6.90;57.80;;;;;;5060244;28;20028;-75
2021/01/04 09:44:13;;;;;;;30.67;16.85;;;6.90;57.50;;;;;;5059373;28;20540;-74
2021/01/04 09:46:48;;;;;;;31.10;17.35;;;6.90;57.30;;;;;;5053712;28;20111;-75
2021/01/04 09:49:16;;;;;;;;;;;6.90;57.30;;;;;;5054204;28;20116;-75
2021/01/04 09:51:49;;;;;;;33.47;18.13;;;7.00;57.50;;;;;;5053727;28;19915;-74
2021/01/04 09:54:25;;;;;;;40.13;19.45;;;7.10;57.00;;;;;;5066868;28;20397;-74
2021/01/04 09:56:58;;;;;;;39.03;20.58;;;7.10;56.70;;;;;;5060890;28;20138;-74
2021/01/04 09:59:25;;;;;;;30.92;16.95;;;7.10;56.70;;;;;;5079958;28;20028;-74
2021/01/04 10:01:56;;;;;;;31.48;17.90;;;7.10;56.70;;;;;;5057288;28;20029;-74
2021/01/04 10:04:29;;;;;;;31.70;17.25;;;7.10;56.70;;;;;;5053460;28;20025;-74
2021/01/04 10:06:58;;;;;;;33.72;17.98;;;7.20;56.70;;;;;;5053370;28;20039;-74
2021/01/04 10:09:29;;;;;;;31.83;17.60;;;7.20;56.40;;;;;;5057164;28;20021;-74
2021/01/04 10:11:55;;;;;;;32.10;17.98;;;7.20;56.40;;;;;;5056793;28;20058;-75
2021/01/04 10:14:21;;;;;;;30.58;17.33;;;7.20;56.40;;;;;;5058666;28;20069;-74
2021/01/04 10:16:51;;;;;;;31.48;17.00;;;7.20;56.30;;;;;;5064951;28;20021;-74
2021/01/04 10:19:28;;;;;;;28.27;16.15;;;7.30;56.20;;;;;;5057396;28;20025;-74
2021/01/04 10:22:17;;;;;;;34.05;18.55;;;7.30;56.20;;;;;;5055046;28;20021;-74
2021/01/04 10:24:45;;;;;;;32.08;17.33;;;7.30;55.80;;;;;;5059439;28;20037;-75
2021/01/04 10:27:16;;;;;;;33.25;19.05;;;7.30;55.80;;;;;;5058059;28;20043;-75
2021/01/04 10:29:46;;;;;;;31.70;17.63;;;7.30;55.40;;;;;;5060356;28;20060;-74
2021/01/04 10:32:24;;;;;;;30.13;16.40;;;7.30;55.60;;;;;;5072297;28;20024;-75
2021/01/04 10:34:51;;;;;;;32.53;17.13;;;7.30;55.80;;;;;;5065916;28;20441;-75
2021/01/04 10:37:19;;;;;;;24.08;14.15;;;7.30;55.80;;;;;;5066781;28;20024;-75
2021/01/04 10:39:46;;;;;;;30.20;17.40;;;7.30;55.80;;;;;;5061610;28;20055;-75
2021/01/04 10:42:23;;;;;;;31.65;17.20;;;7.30;55.50;;;;;;5058601;28;20025;-75
2021/01/04 10:44:50;;;;;;;34.63;18.65;;;7.30;55.50;;;;;;5056207;28;20039;-75
2021/01/04 10:47:39;;;;;;;31.75;17.45;;;7.30;55.40;;;;;;5061024;28;20448;-75
2021/01/04 10:50:13;;;;;;;35.70;18.80;;;7.30;55.50;;;;;;5061963;28;20029;-73
2021/01/04 10:52:40;;;;;;;32.05;17.55;;;7.30;55.40;;;;;;5063555;28;20047;-74
2021/01/04 10:55:18;;;;;;;29.85;17.05;;;7.30;55.40;;;;;;5058653;28;20016;-75
2021/01/04 10:57:48;;;;;;;26.60;15.60;;;7.30;55.50;;;;;;5067181;28;20017;-75
2021/01/04 11:00:23;;;;;;;34.10;18.55;;;7.30;55.70;;;;;;5057544;28;20025;-74
2021/01/04 11:02:49;;;;;;;;;;;7.30;55.60;;;;;;5057212;28;20029;-74
2021/01/04 11:05:19;;;;;;;29.02;16.08;;;7.30;55.80;;;;;;5069381;28;20419;-74
2021/01/04 11:07:45;;;;;;;31.63;17.90;;;7.30;55.60;;;;;;5076862;28;20366;-74
2021/01/04 11:10:31;;;;;;;31.73;16.83;;;7.30;55.50;;;;;;5074867;28;20104;-75
2021/01/04 11:12:59;;;;;;;30.15;15.50;;;7.30;55.70;;;;;;5057943;28;20036;-75
2021/01/04 11:15:36;;;;;;;31.00;17.48;;;7.30;55.70;;;;;;5062379;28;20025;-75
2021/01/04 11:18:09;;;;;;;30.88;15.77;;;7.30;55.40;;;;;;5071920;28;20056;-74
2021/01/04 11:20:36;;;;;;;31.55;17.77;;;7.30;55.40;;;;;;5076687;28;20027;-75
2021/01/04 11:23:06;;;;;;;33.70;18.20;;;7.30;55.50;;;;;;5076697;28;20087;-75
2021/01/04 11:25:32;;;;;;;31.98;17.23;;;7.30;55.50;;;;;;5069365;28;20024;-75
2021/01/04 11:27:58;;;;;;;34.80;18.52;;;7.40;55.70;;;;;;5056603;28;20061;-75
2021/01/04 11:30:24;;;;;;;38.38;19.48;;;7.40;55.80;;;;;;5059691;28;20033;-75
2021/01/04 11:32:50;;;;;;;41.58;21.05;;;7.40;55.60;;;;;;5075658;28;20473;-76
2021/01/04 11:35:17;;;;;;;33.67;18.67;;;7.40;55.60;;;;;;5076912;28;20028;-75
2021/01/04 11:37:43;;;;;;;33.00;17.55;;;7.40;55.50;;;;;;5067959;28;20013;-76
2021/01/04 11:40:11;;;;;;;31.60;16.48;;;7.40;55.60;;;;;;5064533;28;20032;-77
2021/01/04 11:42:37;;;;;;;35.70;18.85;;;7.40;55.60;;;;;;5065855;28;20473;-78
2021/01/04 11:45:07;;;;;;;35.50;18.92;;;7.40;55.70;;;;;;5067461;28;20474;-77
2021/01/04 11:47:33;;;;;;;32.33;17.98;;;7.40;55.60;;;;;;5064152;28;20028;-77
2021/01/04 11:49:59;;;;;;;29.90;16.08;;;7.40;55.50;;;;;;5058715;28;20017;-77
2021/01/04 11:52:25;;;;;;;33.25;17.92;;;7.40;55.50;;;;;;5056260;28;20099;-77
2021/01/04 11:54:50;;;;;;;46.10;20.25;;;7.40;55.40;;;;;;5056369;28;20025;-77
2021/01/04 11:57:16;;;;;;;41.85;20.45;;;7.40;55.50;;;;;;5062676;28;20077;-77
2021/01/04 11:59:43;;;;;;;37.20;19.33;;;7.40;55.40;;;;;;5074358;28;20107;-77
2021/01/04 12:02:09;;;;;;;38.55;20.58;;;7.40;55.30;;;;;;5067313;28;20044;-77
2021/01/04 12:04:35;;;;;;;39.30;21.13;;;7.40;55.30;;;;;;5066416;28;20032;-77
2021/01/04 12:07:01;;;;;;;40.35;20.23;;;7.40;55.40;;;;;;5075621;28;20100;-77
2021/01/04 12:09:27;;;;;;;38.00;19.95;;;7.40;55.60;;;;;;5083433;28;20565;-76
2021/01/04 12:11:52;;;;;;;39.05;20.88;;;7.40;55.50;;;;;;5081615;28;20390;-76
2021/01/04 12:14:18;;;;;;;36.53;18.52;;;7.40;55.50;;;;;;5064549;28;20025;-77
2021/01/04 12:16:44;;;;;;;38.30;19.45;;;7.40;55.60;;;;;;5074448;28;20051;-75
2021/01/04 12:19:10;;;;;;;38.28;20.95;;;7.40;55.70;;;;;;5087332;28;20024;-75
2021/01/04 12:21:36;;;;;;;35.33;18.98;;;7.40;55.80;;;;;;5074849;28;20028;-75
2021/01/04 12:24:02;;;;;;;39.15;19.20;;;7.40;55.80;;;;;;5055407;28;20060;-75
2021/01/04 12:26:29;;;;;;;36.63;20.10;;;7.40;55.80;;;;;;5067002;28;20110;-75
2021/01/04 12:28:55;;;;;;;38.20;20.05;;;7.40;55.60;;;;;;5082061;28;20481;-76
2021/01/04 12:31:21;;;;;;;38.45;19.70;;;7.40;55.60;;;;;;5073961;28;20108;-75
2021/01/04 12:33:47;;;;;;;38.55;20.85;;;7.40;55.60;;;;;;5071120;28;20028;-75
2021/01/04 12:36:22;;;;;;;42.72;20.17;;;7.40;55.60;;;;;;5061015;28;20378;-76
2021/01/04 12:38:48;;;;;;;37.40;19.83;;;7.40;55.60;;;;;;5079990;28;20031;-76
2021/01/04 12:41:15;;;;;;;33.45;17.95;;;7.40;55.70;;;;;;5084436;28;20020;-77
2021/01/04 12:43:43;;;;;;;42.97;21.25;;;7.40;55.70;;;;;;5066751;28;20482;-76
2021/01/04 12:46:09;;;;;;;35.65;19.02;;;7.40;55.70;;;;;;5073702;28;20024;-76
2021/01/04 12:48:35;;;;;;;46.67;22.17;;;7.40;55.60;;;;;;5090314;28;20070;-76
2021/01/04 12:51:01;;;;;;;45.63;22.08;;;7.40;55.70;;;;;;5058142;28;20021;-77
2021/01/04 12:53:26;;;;;;;42.40;20.83;;;7.40;55.70;;;;;;5061526;28;20081;-77
2021/01/04 12:55:52;;;;;;;40.35;20.58;;;7.40;55.60;;;;;;5077333;28;20025;-77
2021/01/04 12:58:19;;;;;;;38.92;20.65;;;7.40;55.60;;;;;;5072941;28;20024;-76
2021/01/04 13:00:45;;;;;;;36.55;19.20;;;7.40;55.70;;;;;;5070951;28;20069;-76
2021/01/04 13:03:12;;;;;;;44.38;21.17;;;7.40;55.80;;;;;;5067082;28;20474;-77
2021/01/04 13:05:37;;;;;;;40.80;22.25;;;7.40;55.80;;;;;;5068755;28;20462;-77
2021/01/04 13:08:04;;;;;;;39.40;20.40;;;7.40;55.80;;;;;;5079616;28;20032;-77
2021/01/04 13:10:29;;;;;;;37.53;20.23;;;7.40;55.80;;;;;;5088725;28;20013;-77
2021/01/04 13:12:55;;;;;;;37.75;19.25;;;7.40;55.80;;;;;;5067655;28;20017;-77
2021/01/04 13:15:21;;;;;;;38.15;20.35;;;7.40;55.80;;;;;;5075765;28;20378;-76
2021/01/04 13:17:46;;;;;;;41.38;20.90;;;7.40;55.80;;;;;;5062495;28;20470;-76
2021/01/04 13:20:13;;;;;;;42.58;21.52;;;7.40;55.80;;;;;;5064312;28;20054;-76
2021/01/04 13:22:41;;;;;;;38.40;21.48;;;7.40;55.80;;;;;;5087576;28;20036;-76